createdAt,value
2022-08-22T00:00:42.797Z,96559.84
2022-08-22T00:03:01.342Z,96472.00
2022-08-22T00:04:17.015Z,96561.69
2022-08-22T00:07:38.847Z,96550.63
2022-08-22T00:11:19.645Z,96555.34
2022-08-22T00:14:53.486Z,96553.78
2022-08-22T00:18:05.712Z,96556.78
2022-08-22T00:21:12.448Z,96552.06
2022-08-22T00:24:28.749Z,96556.19
2022-08-22T00:27:45.986Z,96556.06
2022-08-22T00:30:58.824Z,96556.09
2022-08-22T00:34:09.153Z,96561.88
2022-08-22T00:37:34.761Z,96565.72
2022-08-22T00:40:53.508Z,96567.91
2022-08-22T00:44:17.123Z,96561.97
2022-08-22T00:47:42.650Z,96568.50
2022-08-22T00:51:05.678Z,96567.94
2022-08-22T00:54:39.787Z,96567.63
2022-08-22T00:58:08.975Z,96557.16
2022-08-22T01:01:11.901Z,96567.16
2022-08-22T01:04:52.212Z,96564.19
2022-08-22T01:08:39.172Z,96565.75
2022-08-22T01:12:07.021Z,96564.69
2022-08-22T01:15:11.895Z,96565.28
2022-08-22T01:19:08.457Z,96567.22
2022-08-22T01:23:30.716Z,96558.31
2022-08-22T01:27:21.448Z,96560.88
2022-08-22T01:31:11.568Z,96561.56
2022-08-22T01:34:18.333Z,96560.16
2022-08-22T01:38:19.757Z,96566.00
2022-08-22T01:42:05.604Z,96562.38
2022-08-22T01:45:36.264Z,96555.06
2022-08-22T01:48:51.031Z,96559.16
2022-08-22T01:52:44.289Z,96568.34
2022-08-22T01:56:12.937Z,96560.13
2022-08-22T01:59:15.104Z,96563.78
2022-08-22T02:02:51.343Z,96563.94
2022-08-22T02:06:04.897Z,96566.81
2022-08-22T02:09:34.496Z,96558.56
2022-08-22T02:13:09.651Z,96557.78
2022-08-22T02:16:29.078Z,96556.06
2022-08-22T02:19:44.621Z,96562.88
2022-08-22T02:22:55.089Z,96552.41
2022-08-22T02:25:56.773Z,96569.81
2022-08-22T02:29:53.108Z,96560.47
2022-08-22T02:33:34.334Z,96556.84
2022-08-22T02:37:23.281Z,96558.91
2022-08-22T02:40:44.450Z,96556.69
2022-08-22T02:44:19.516Z,96555.91
2022-08-22T02:47:41.718Z,96568.22
2022-08-22T02:50:57.822Z,96560.31
2022-08-22T02:54:24.728Z,96557.00
2022-08-22T02:58:06.033Z,96559.22
2022-08-22T03:01:02.851Z,96563.00
2022-08-22T03:04:30.750Z,96557.50
2022-08-22T03:07:42.384Z,96555.41
2022-08-22T03:10:47.642Z,96568.38
2022-08-22T03:14:12.983Z,96563.47
2022-08-22T03:17:25.922Z,96569.66
2022-08-22T03:20:53.173Z,96569.97
2022-08-22T03:24:01.215Z,96559.38
2022-08-22T03:27:32.897Z,96563.00
2022-08-22T03:30:44.530Z,96567.59
2022-08-22T03:33:42.172Z,96559.84
2022-08-22T03:36:39.238Z,96559.84
2022-08-22T03:39:59.824Z,96553.81
2022-08-22T03:43:14.231Z,96562.59
2022-08-22T03:46:21.636Z,96565.34
2022-08-22T03:49:24.005Z,96566.16
2022-08-22T03:53:15.257Z,96567.50
2022-08-22T03:56:57.398Z,96565.97
2022-08-22T04:00:42.020Z,96559.66
2022-08-22T04:04:35.286Z,96567.47
2022-08-22T04:08:06.696Z,96565.25
2022-08-22T04:11:48.755Z,96566.41
2022-08-22T04:15:16.216Z,96574.06
2022-08-22T04:18:29.112Z,96578.22
2022-08-22T04:21:52.768Z,96583.28
2022-08-22T04:25:16.854Z,96588.00
2022-08-22T04:28:28.004Z,96588.03
2022-08-22T04:31:36.563Z,96587.66
2022-08-22T04:35:03.454Z,96589.88
2022-08-22T04:38:29.350Z,96595.56
2022-08-22T04:42:00.668Z,96599.88
2022-08-22T04:45:24.112Z,96596.81
2022-08-22T04:48:48.431Z,96601.41
2022-08-22T04:52:29.508Z,96600.47
2022-08-22T04:56:13.397Z,96594.06
2022-08-22T04:59:17.924Z,96602.69
2022-08-22T05:02:24.418Z,96610.84
2022-08-22T05:05:32.955Z,96613.56
2022-08-22T05:08:36.033Z,96614.81
2022-08-22T05:11:38.359Z,96617.81
2022-08-22T05:14:46.796Z,96614.22
2022-08-22T05:17:46.273Z,96614.41
2022-08-22T05:20:48.074Z,96619.47
2022-08-22T05:24:06.543Z,96616.06
2022-08-22T05:27:22.875Z,96615.91
2022-08-22T05:30:27.849Z,96618.09
2022-08-22T05:33:32.247Z,96616.53
2022-08-22T05:36:40.413Z,96614.66
2022-08-22T05:39:40.335Z,96616.88
2022-08-22T05:42:37.655Z,96621.19
2022-08-22T05:45:36.299Z,96611.53
2022-08-22T05:48:46.160Z,96621.34
2022-08-22T05:52:05.276Z,96626.25
2022-08-22T05:55:20.483Z,96627.38
2022-08-22T05:58:41.385Z,96625.16
2022-08-22T06:01:57.014Z,96618.00
2022-08-22T06:05:00.951Z,96622.13
2022-08-22T06:08:20.145Z,96623.06
2022-08-22T06:11:26.351Z,96633.03
2022-08-22T06:14:48.165Z,96620.03
2022-08-22T06:17:58.160Z,96622.41
2022-08-22T06:21:06.880Z,96620.00
2022-08-22T06:24:08.653Z,96618.78
2022-08-22T06:27:12.730Z,96622.22
2022-08-22T06:30:14.960Z,96616.16
2022-08-22T06:33:18.544Z,96612.38
2022-08-22T06:36:32.190Z,96610.47
2022-08-22T06:39:37.796Z,96611.88
2022-08-22T06:42:41.746Z,96605.31
2022-08-22T06:45:40.662Z,96608.09
2022-08-22T06:48:38.221Z,96615.66
2022-08-22T06:51:38.021Z,96602.72
2022-08-22T06:54:40.394Z,96594.69
2022-08-22T06:57:50.449Z,96600.69
2022-08-22T07:01:05.710Z,96602.78
2022-08-22T07:04:11.279Z,96587.97
2022-08-22T07:07:08.259Z,96582.06
2022-08-22T07:10:05.940Z,96586.03
2022-08-22T07:13:04.403Z,96579.75
2022-08-22T07:16:07.741Z,96582.50
2022-08-22T07:19:06.117Z,96585.69
2022-08-22T07:22:26.012Z,96585.06
2022-08-22T07:25:24.670Z,96581.69
2022-08-22T07:28:50.798Z,96574.84
2022-08-22T07:32:18.900Z,96567.69
2022-08-22T07:35:26.787Z,96562.50
2022-08-22T07:38:43.750Z,96571.13
2022-08-22T07:42:19.220Z,96570.41
2022-08-22T07:45:49.402Z,96566.50
2022-08-22T07:49:08.540Z,96564.66
2022-08-22T07:52:11.931Z,96568.50
2022-08-22T07:55:20.358Z,96572.25
2022-08-22T07:58:18.633Z,96568.03
2022-08-22T08:01:20.715Z,96565.69
2022-08-22T08:04:35.810Z,96569.53
2022-08-22T08:07:35.688Z,96569.19
2022-08-22T08:10:37.369Z,96569.72
2022-08-22T08:13:46.903Z,96567.00
2022-08-22T08:17:05.124Z,96576.44
2022-08-22T08:20:16.269Z,96579.25
2022-08-22T08:23:23.589Z,96583.53
2022-08-22T08:26:30.463Z,96572.13
2022-08-22T08:29:28.854Z,96565.69
2022-08-22T08:32:31.982Z,96566.59
2022-08-22T08:35:42.401Z,96574.56
2022-08-22T08:39:24.352Z,96570.06
2022-08-22T08:43:10.872Z,96557.50
2022-08-22T08:46:43.352Z,96571.91
2022-08-22T08:49:56.018Z,96571.00
2022-08-22T08:53:18.674Z,96561.81
2022-08-22T08:56:19.929Z,96561.81
2022-08-22T09:00:00.793Z,96557.63
2022-08-22T09:03:51.242Z,96554.53
2022-08-22T09:07:06.867Z,96551.19
2022-08-22T09:10:59.966Z,96542.59
2022-08-22T09:14:21.421Z,96552.31
2022-08-22T09:17:34.429Z,96549.69
2022-08-22T09:20:51.076Z,96549.16
2022-08-22T09:24:33.783Z,96544.31
2022-08-22T09:27:45.551Z,96548.56
2022-08-22T09:31:48.317Z,96547.97
2022-08-22T09:35:14.626Z,96546.09
2022-08-22T09:38:37.089Z,96544.41
2022-08-22T09:42:08.127Z,96529.41
2022-08-22T09:45:24.670Z,96543.47
2022-08-22T09:48:31.634Z,96538.13
2022-08-22T09:51:55.355Z,96536.53
2022-08-22T09:55:07.913Z,96531.72
2022-08-22T09:58:19.583Z,96521.94
2022-08-22T10:02:03.025Z,96534.44
2022-08-22T10:05:35.256Z,96527.00
2022-08-22T10:09:00.832Z,96516.75
2022-08-22T10:12:12.515Z,96533.69
2022-08-22T10:15:35.545Z,96531.34
2022-08-22T10:19:17.945Z,96533.69
2022-08-22T10:23:03.729Z,96521.19
2022-08-22T10:26:38.405Z,96529.03
2022-08-22T10:30:06.457Z,96533.97
2022-08-22T10:33:23.074Z,96526.22
2022-08-22T10:36:36.140Z,96521.53
2022-08-22T10:40:07.956Z,96529.69
2022-08-22T10:43:14.882Z,96523.31
2022-08-22T10:46:29.402Z,96530.06
2022-08-22T10:50:10.744Z,96524.72
2022-08-22T10:53:42.834Z,96518.44
2022-08-22T10:56:59.298Z,96522.75
2022-08-22T11:00:12.389Z,96511.06
2022-08-22T11:03:40.829Z,96507.53
2022-08-22T11:07:09.473Z,96512.19
2022-08-22T11:10:34.906Z,96505.59
2022-08-22T11:14:19.727Z,96494.25
2022-08-22T11:18:04.985Z,96496.19
2022-08-22T11:21:16.492Z,96494.16
2022-08-22T11:25:07.343Z,96489.66
2022-08-22T11:28:33.262Z,96483.59
2022-08-22T11:31:51.949Z,96474.88
2022-08-22T11:34:57.417Z,96482.25
2022-08-22T11:38:28.059Z,96473.50
2022-08-22T11:41:58.017Z,96471.97
2022-08-22T11:45:01.066Z,96475.38
2022-08-22T11:48:47.058Z,96465.09
2022-08-22T11:52:13.422Z,96471.66
2022-08-22T11:55:33.227Z,96461.84
2022-08-22T11:58:55.586Z,96465.25
2022-08-22T12:02:03.963Z,96457.22
2022-08-22T12:05:21.570Z,96461.25
2022-08-22T12:08:52.149Z,96458.63
2022-08-22T12:12:04.574Z,96453.03
2022-08-22T12:15:13.367Z,96449.00
2022-08-22T12:18:42.500Z,96451.28
2022-08-22T12:22:00.615Z,96453.09
2022-08-22T12:25:44.521Z,96454.09
2022-08-22T12:29:20.134Z,96443.16
2022-08-22T12:32:45.688Z,96439.41
2022-08-22T12:36:21.901Z,96438.38
2022-08-22T12:39:51.042Z,96433.81
2022-08-22T12:43:18.861Z,96430.38
2022-08-22T12:47:02.891Z,96421.03
2022-08-22T12:50:12.331Z,96423.53
2022-08-22T12:53:32.381Z,96428.59
2022-08-22T12:56:58.668Z,96419.44
2022-08-22T13:00:22.992Z,96420.22
2022-08-22T13:03:32.869Z,96415.59
2022-08-22T13:06:35.622Z,96410.56
2022-08-22T13:09:40.651Z,96415.97
2022-08-22T13:12:50.331Z,96419.78
2022-08-22T13:16:16.232Z,96422.50
2022-08-22T13:19:32.046Z,96410.28
2022-08-22T13:22:34.843Z,96400.78
2022-08-22T13:26:10.505Z,96412.75
2022-08-22T13:29:39.542Z,96422.84
2022-08-22T13:32:44.671Z,96424.78
2022-08-22T13:36:10.849Z,96408.13
2022-08-22T13:39:38.752Z,96414.44
2022-08-22T13:42:45.543Z,96416.13
2022-08-22T13:45:56.733Z,96412.31
2022-08-22T13:49:00.736Z,96407.84
2022-08-22T13:52:29.963Z,96400.88
2022-08-22T13:55:34.613Z,96407.25
2022-08-22T13:58:50.114Z,96405.69
2022-08-22T14:02:18.337Z,96417.00
2022-08-22T14:05:33.185Z,96400.09
2022-08-22T14:08:36.463Z,96400.78
2022-08-22T14:12:13.625Z,96393.81
2022-08-22T14:15:12.645Z,96401.50
2022-08-22T14:18:10.746Z,96399.56
2022-08-22T14:21:33.440Z,96407.25
2022-08-22T14:24:46.156Z,96410.88
2022-08-22T14:28:09.439Z,96399.16
2022-08-22T14:31:13.427Z,96405.91
2022-08-22T14:34:14.572Z,96402.50
2022-08-22T14:37:31.956Z,96397.28
2022-08-22T14:40:36.437Z,96401.00
2022-08-22T14:43:47.068Z,96401.34
2022-08-22T14:46:54.761Z,96402.22
2022-08-22T14:49:57.529Z,96403.78
2022-08-22T14:53:18.269Z,96401.13
2022-08-22T14:56:23.963Z,96405.06
2022-08-22T14:59:37.773Z,96407.91
2022-08-22T15:02:35.379Z,96408.13
2022-08-22T15:05:50.763Z,96406.63
2022-08-22T15:08:50.518Z,96404.09
2022-08-22T15:11:48.716Z,96406.81
2022-08-22T15:14:52.473Z,96400.03
2022-08-22T15:17:49.529Z,96398.38
2022-08-22T15:21:06.833Z,96402.13
2022-08-22T15:24:13.156Z,96399.09
2022-08-22T15:27:11.394Z,96403.44
2022-08-22T15:30:18.860Z,96402.97
2022-08-22T15:33:45.415Z,96387.13
2022-08-22T15:37:07.839Z,96388.75
2022-08-22T15:40:27.718Z,96397.16
2022-08-22T15:43:34.953Z,96389.63
2022-08-22T15:46:41.280Z,96390.97
2022-08-22T15:50:00.540Z,96401.94
2022-08-22T15:53:18.550Z,96386.56
2022-08-22T15:56:15.500Z,96385.97
2022-08-22T15:59:26.999Z,96386.13
2022-08-22T16:02:53.519Z,96388.53
2022-08-22T16:05:56.936Z,96388.91
2022-08-22T16:08:55.334Z,96392.06
2022-08-22T16:11:55.457Z,96394.00
2022-08-22T16:14:53.328Z,96389.81
2022-08-22T16:17:53.554Z,96389.44
2022-08-22T16:20:54.184Z,96391.47
2022-08-22T16:23:51.087Z,96395.38
2022-08-22T16:26:48.833Z,96395.81
2022-08-22T16:29:46.307Z,96398.91
2022-08-22T16:32:53.269Z,96400.47
2022-08-22T16:36:20.961Z,96393.06
2022-08-22T16:39:23.665Z,96389.16
2022-08-22T16:42:25.005Z,96389.91
2022-08-22T16:45:24.617Z,96393.81
2022-08-22T16:48:37.432Z,96391.84
2022-08-22T16:51:34.493Z,96391.09
2022-08-22T16:54:53.567Z,96395.38
2022-08-22T16:58:17.730Z,96402.44
2022-08-22T17:01:26.782Z,96395.41
2022-08-22T17:04:51.462Z,96397.38
2022-08-22T17:07:54.094Z,96403.59
2022-08-22T17:11:40.622Z,96409.84
2022-08-22T17:15:07.119Z,96411.41
2022-08-22T17:18:25.546Z,96402.41
2022-08-22T17:21:29.436Z,96410.22
2022-08-22T17:24:50.954Z,96423.03
2022-08-22T17:28:22.972Z,96416.03
2022-08-22T17:31:54.823Z,96405.88
2022-08-22T17:35:24.625Z,96416.34
2022-08-22T17:38:51.847Z,96422.97
2022-08-22T17:42:19.022Z,96426.50
2022-08-22T17:46:00.253Z,96427.25
2022-08-22T17:49:17.339Z,96425.47
2022-08-22T17:52:38.026Z,96430.19
2022-08-22T17:55:52.770Z,96438.66
2022-08-22T17:59:20.931Z,96446.72
2022-08-22T18:02:50.228Z,96447.97
2022-08-22T18:05:49.127Z,96451.47
2022-08-22T18:09:18.574Z,96445.53
2022-08-22T18:12:33.677Z,96449.38
2022-08-22T18:16:05.845Z,96454.47
2022-08-22T18:19:16.916Z,96454.44
2022-08-22T18:22:31.750Z,96455.13
2022-08-22T18:25:41.571Z,96460.69
2022-08-22T18:29:13.266Z,96469.25
2022-08-22T18:32:35.677Z,96474.97
2022-08-22T18:35:54.701Z,96481.88
2022-08-22T18:39:15.613Z,96483.56
2022-08-22T18:42:33.233Z,96492.13
2022-08-22T18:45:48.284Z,96496.56
2022-08-22T18:49:11.675Z,96497.72
2022-08-22T18:52:20.201Z,96501.88
2022-08-22T18:55:28.311Z,96506.44
2022-08-22T18:59:05.448Z,96504.75
2022-08-22T19:02:21.043Z,96512.38
2022-08-22T19:05:47.016Z,96528.13
2022-08-22T19:09:03.330Z,96526.66
2022-08-22T19:12:50.048Z,96525.31
2022-08-22T19:15:59.354Z,96530.38
2022-08-22T19:19:03.380Z,96534.19
2022-08-22T19:22:33.895Z,96535.63
2022-08-22T19:25:30.765Z,96543.69
2022-08-22T19:28:36.742Z,96539.91
2022-08-22T19:31:37.203Z,96544.25
2022-08-22T19:34:46.900Z,96550.06
2022-08-22T19:37:57.757Z,96549.81
2022-08-22T19:40:58.593Z,96545.69
2022-08-22T19:43:55.579Z,96552.41
2022-08-22T19:47:26.648Z,96555.56
2022-08-22T19:50:27.360Z,96548.59
2022-08-22T19:54:20.362Z,96559.09
2022-08-22T19:57:23.071Z,96555.00
2022-08-22T20:01:07.512Z,96563.63
2022-08-22T20:04:54.962Z,96561.94
2022-08-22T20:08:06.722Z,96550.22
2022-08-22T20:11:18.820Z,96569.47
2022-08-22T20:14:33.594Z,96563.94
2022-08-22T20:17:42.244Z,96572.75
2022-08-22T20:20:59.810Z,96566.47
2022-08-22T20:23:56.806Z,96562.47
2022-08-22T20:27:13.272Z,96573.91
2022-08-22T20:30:29.641Z,96567.34
2022-08-22T20:33:41.591Z,96571.34
2022-08-22T20:36:44.777Z,96566.81
2022-08-22T20:40:55.305Z,96571.88
2022-08-22T20:43:53.525Z,96575.13
2022-08-22T20:47:11.322Z,96573.47
2022-08-22T20:50:11.926Z,96574.56
2022-08-22T20:53:17.384Z,96588.31
2022-08-22T20:56:14.350Z,96584.72
2022-08-22T20:59:39.754Z,96588.13
2022-08-22T21:03:01.905Z,96588.94
2022-08-22T21:06:19.358Z,96601.06
2022-08-22T21:09:39.970Z,96587.34
2022-08-22T21:12:36.808Z,96595.25
2022-08-22T21:15:52.525Z,96598.84
2022-08-22T21:18:52.478Z,96594.34
2022-08-22T21:21:49.425Z,96592.91
2022-08-22T21:24:47.187Z,96592.91
2022-08-22T21:27:48.354Z,96595.56
2022-08-22T21:30:47.333Z,96598.19
2022-08-22T21:33:47.376Z,96596.03
2022-08-22T21:36:44.602Z,96597.63
2022-08-22T21:39:49.796Z,96599.84
2022-08-22T21:43:10.137Z,96597.59
2022-08-22T21:46:07.945Z,96598.22
2022-08-22T21:49:05.392Z,96605.63
2022-08-22T21:52:02.275Z,96601.16
2022-08-22T21:55:32.803Z,96613.88
2022-08-22T21:58:36.655Z,96602.56
2022-08-22T22:01:34.184Z,96601.25
2022-08-22T22:04:31.713Z,96602.38
2022-08-22T22:07:29.230Z,96607.78
2022-08-22T22:10:26.330Z,96612.16
2022-08-22T22:13:24.101Z,96610.50
2022-08-22T22:16:28.758Z,96609.94
2022-08-22T22:19:25.661Z,96620.25
2022-08-22T22:22:22.572Z,96619.06
2022-08-22T22:25:39.016Z,96621.03
2022-08-22T22:28:47.240Z,96620.16
2022-08-22T22:31:44.102Z,96616.84
2022-08-22T22:34:41.081Z,96621.34
2022-08-22T22:37:38.030Z,96632.69
2022-08-22T22:40:38.625Z,96620.03
2022-08-22T22:43:36.334Z,96621.91
2022-08-22T22:46:33.195Z,96623.84
2022-08-22T22:49:32.517Z,96617.31
2022-08-22T22:52:29.691Z,96624.16
2022-08-22T22:55:26.557Z,96616.44
2022-08-22T22:58:23.657Z,96611.22
2022-08-22T23:01:25.584Z,96613.34
2022-08-22T23:04:22.557Z,96612.50
2022-08-22T23:07:20.847Z,96621.34
2022-08-22T23:10:21.898Z,96618.13
2022-08-22T23:13:19.202Z,96615.88
2022-08-22T23:16:23.229Z,96619.81
2022-08-22T23:19:20.086Z,96624.72
2022-08-22T23:22:17.273Z,96631.53
2022-08-22T23:25:15.015Z,96633.56
2022-08-22T23:28:11.935Z,96632.81
2022-08-22T23:31:26.403Z,96633.28
2022-08-22T23:34:27.521Z,96641.25
2022-08-22T23:37:24.620Z,96651.59
2022-08-22T23:40:21.565Z,96647.94
2022-08-22T23:43:18.438Z,96645.69
2022-08-22T23:46:17.011Z,96636.81
2022-08-22T23:49:15.666Z,96642.50
2022-08-22T23:52:13.703Z,96639.63
2022-08-22T23:55:10.585Z,96647.81
2022-08-22T23:58:07.455Z,96648.63
